sensor_id;sensor_type;location;lat;lon;timestamp;temperature;humidity
35111;DHT22;21290;50.158;8.658;2023-06-14T00:00:45;16.60;80.20
35111;DHT22;21290;50.158;8.658;2023-06-14T00:03:12;16.60;80.50
35111;DHT22;21290;50.158;8.658;2023-06-14T00:05:44;16.60;80.70
35111;DHT22;21290;50.158;8.658;2023-06-14T00:08:13;16.50;80.90
35111;DHT22;21290;50.158;8.658;2023-06-14T00:10:41;16.50;82.30
35111;DHT22;21290;50.158;8.658;2023-06-14T00:13:09;16.40;81.20
35111;DHT22;21290;50.158;8.658;2023-06-14T00:15:36;16.40;82.00
35111;DHT22;21290;50.158;8.658;2023-06-14T00:18:04;16.40;82.20
35111;DHT22;21290;50.158;8.658;2023-06-14T00:20:32;16.30;82.40
35111;DHT22;21290;50.158;8.658;2023-06-14T00:23:00;16.30;82.30
35111;DHT22;21290;50.158;8.658;2023-06-14T00:25:28;16.30;82.60
35111;DHT22;21290;50.158;8.658;2023-06-14T00:27:57;16.30;82.70
35111;DHT22;21290;50.158;8.658;2023-06-14T00:30:24;16.20;83.00
35111;DHT22;21290;50.158;8.658;2023-06-14T00:32:51;16.20;83.30
35111;DHT22;21290;50.158;8.658;2023-06-14T00:35:18;16.20;83.30
35111;DHT22;21290;50.158;8.658;2023-06-14T00:37:45;16.10;84.00
35111;DHT22;21290;50.158;8.658;2023-06-14T00:40:12;16.10;85.00
35111;DHT22;21290;50.158;8.658;2023-06-14T00:42:39;16.10;84.80
35111;DHT22;21290;50.158;8.658;2023-06-14T00:45:06;16.00;84.10
35111;DHT22;21290;50.158;8.658;2023-06-14T00:47:34;16.00;85.30
35111;DHT22;21290;50.158;8.658;2023-06-14T00:50:02;16.00;84.60
35111;DHT22;21290;50.158;8.658;2023-06-14T00:52:29;16.00;85.40
35111;DHT22;21290;50.158;8.658;2023-06-14T00:54:56;15.90;85.50
35111;DHT22;21290;50.158;8.658;2023-06-14T00:57:23;15.90;85.70
35111;DHT22;21290;50.158;8.658;2023-06-14T00:59:50;15.80;87.20
35111;DHT22;21290;50.158;8.658;2023-06-14T01:02:17;15.90;87.10
35111;DHT22;21290;50.158;8.658;2023-06-14T01:04:48;15.80;88.20
35111;DHT22;21290;50.158;8.658;2023-06-14T01:07:41;15.80;87.00
35111;DHT22;21290;50.158;8.658;2023-06-14T01:10:20;15.80;88.40
35111;DHT22;21290;50.158;8.658;2023-06-14T01:13:48;15.80;88.40
35111;DHT22;21290;50.158;8.658;2023-06-14T01:15:50;15.70;88.00
35111;DHT22;21290;50.158;8.658;2023-06-14T01:18:17;15.70;89.00
35111;DHT22;21290;50.158;8.658;2023-06-14T01:20:46;15.70;89.60
35111;DHT22;21290;50.158;8.658;2023-06-14T01:23:17;15.70;88.90
35111;DHT22;21290;50.158;8.658;2023-06-14T01:25:44;15.70;89.20
35111;DHT22;21290;50.158;8.658;2023-06-14T01:28:12;15.70;89.40
35111;DHT22;21290;50.158;8.658;2023-06-14T01:30:41;15.60;89.60
35111;DHT22;21290;50.158;8.658;2023-06-14T01:33:14;15.60;89.00
35111;DHT22;21290;50.158;8.658;2023-06-14T01:35:47;15.60;89.90
35111;DHT22;21290;50.158;8.658;2023-06-14T01:38:14;15.60;89.30
35111;DHT22;21290;50.158;8.658;2023-06-14T01:40:43;15.50;90.10
35111;DHT22;21290;50.158;8.658;2023-06-14T01:43:14;15.60;89.70
35111;DHT22;21290;50.158;8.658;2023-06-14T01:45:42;15.60;90.00
35111;DHT22;21290;50.158;8.658;2023-06-14T01:48:09;15.60;90.00
35111;DHT22;21290;50.158;8.658;2023-06-14T01:50:36;15.50;90.00
35111;DHT22;21290;50.158;8.658;2023-06-14T01:53:03;15.50;89.90
35111;DHT22;21290;50.158;8.658;2023-06-14T01:55:30;15.50;90.30
35111;DHT22;21290;50.158;8.658;2023-06-14T01:58:00;15.40;90.30
35111;DHT22;21290;50.158;8.658;2023-06-14T02:00:26;15.40;90.70
35111;DHT22;21290;50.158;8.658;2023-06-14T02:02:53;15.30;90.70
35111;DHT22;21290;50.158;8.658;2023-06-14T02:05:20;15.30;90.70
35111;DHT22;21290;50.158;8.658;2023-06-14T02:07:47;15.30;90.80
35111;DHT22;21290;50.158;8.658;2023-06-14T02:10:14;15.30;91.20
35111;DHT22;21290;50.158;8.658;2023-06-14T02:12:42;15.30;91.50
35111;DHT22;21290;50.158;8.658;2023-06-14T02:15:09;15.30;91.60
35111;DHT22;21290;50.158;8.658;2023-06-14T02:17:36;15.20;91.80
35111;DHT22;21290;50.158;8.658;2023-06-14T02:20:04;15.20;92.00
35111;DHT22;21290;50.158;8.658;2023-06-14T02:22:32;15.10;92.60
35111;DHT22;21290;50.158;8.658;2023-06-14T02:24:58;15.10;93.20
35111;DHT22;21290;50.158;8.658;2023-06-14T02:27:28;15.10;92.80
35111;DHT22;21290;50.158;8.658;2023-06-14T02:29:55;15.00;93.00
35111;DHT22;21290;50.158;8.658;2023-06-14T02:32:21;15.00;93.30
35111;DHT22;21290;50.158;8.658;2023-06-14T02:34:48;15.00;93.80
35111;DHT22;21290;50.158;8.658;2023-06-14T02:37:16;15.00;94.00
35111;DHT22;21290;50.158;8.658;2023-06-14T02:39:43;15.00;94.30
35111;DHT22;21290;50.158;8.658;2023-06-14T02:42:10;14.90;94.90
35111;DHT22;21290;50.158;8.658;2023-06-14T02:44:37;14.80;94.20
35111;DHT22;21290;50.158;8.658;2023-06-14T02:47:04;14.80;95.10
35111;DHT22;21290;50.158;8.658;2023-06-14T02:49:31;14.80;95.30
35111;DHT22;21290;50.158;8.658;2023-06-14T02:51:58;14.80;94.70
35111;DHT22;21290;50.158;8.658;2023-06-14T02:54:25;14.80;95.10
35111;DHT22;21290;50.158;8.658;2023-06-14T02:56:52;14.70;95.40
35111;DHT22;21290;50.158;8.658;2023-06-14T02:59:19;14.70;95.20
35111;DHT22;21290;50.158;8.658;2023-06-14T03:01:48;14.70;95.70
35111;DHT22;21290;50.158;8.658;2023-06-14T03:04:14;14.60;95.60
35111;DHT22;21290;50.158;8.658;2023-06-14T03:06:42;14.60;96.40
35111;DHT22;21290;50.158;8.658;2023-06-14T03:09:11;14.60;96.70
35111;DHT22;21290;50.158;8.658;2023-06-14T03:11:38;14.60;96.90
35111;DHT22;21290;50.158;8.658;2023-06-14T03:14:05;14.60;97.20
35111;DHT22;21290;50.158;8.658;2023-06-14T03:16:33;14.50;97.10
35111;DHT22;21290;50.158;8.658;2023-06-14T03:19:00;14.50;98.00
35111;DHT22;21290;50.158;8.658;2023-06-14T03:21:27;14.40;97.50
35111;DHT22;21290;50.158;8.658;2023-06-14T03:23:54;14.40;97.50
35111;DHT22;21290;50.158;8.658;2023-06-14T03:26:21;14.40;97.80
35111;DHT22;21290;50.158;8.658;2023-06-14T03:28:48;14.40;97.90
35111;DHT22;21290;50.158;8.658;2023-06-14T03:31:16;14.40;98.20
35111;DHT22;21290;50.158;8.658;2023-06-14T03:33:43;14.40;98.00
35111;DHT22;21290;50.158;8.658;2023-06-14T03:36:10;14.40;98.00
35111;DHT22;21290;50.158;8.658;2023-06-14T03:38:37;14.40;97.90
35111;DHT22;21290;50.158;8.658;2023-06-14T03:41:04;14.50;97.80
35111;DHT22;21290;50.158;8.658;2023-06-14T03:43:30;14.50;98.20
35111;DHT22;21290;50.158;8.658;2023-06-14T03:45:57;14.50;98.00
35111;DHT22;21290;50.158;8.658;2023-06-14T03:48:24;14.50;98.50
35111;DHT22;21290;50.158;8.658;2023-06-14T03:50:51;14.50;98.60
35111;DHT22;21290;50.158;8.658;2023-06-14T03:53:17;14.40;98.40
35111;DHT22;21290;50.158;8.658;2023-06-14T03:55:47;14.40;98.90
35111;DHT22;21290;50.158;8.658;2023-06-14T03:58:18;14.40;99.10
35111;DHT22;21290;50.158;8.658;2023-06-14T04:00:45;14.40;98.90
35111;DHT22;21290;50.158;8.658;2023-06-14T04:03:12;14.40;99.30
35111;DHT22;21290;50.158;8.658;2023-06-14T04:05:40;14.40;99.70
35111;DHT22;21290;50.158;8.658;2023-06-14T04:08:09;14.50;99.80
35111;DHT22;21290;50.158;8.658;2023-06-14T04:10:36;14.50;99.40
35111;DHT22;21290;50.158;8.658;2023-06-14T04:13:02;14.50;99.60
35111;DHT22;21290;50.158;8.658;2023-06-14T04:15:29;14.50;99.70
35111;DHT22;21290;50.158;8.658;2023-06-14T04:17:56;14.60;99.50
35111;DHT22;21290;50.158;8.658;2023-06-14T04:20:24;14.60;99.60
35111;DHT22;21290;50.158;8.658;2023-06-14T04:22:51;14.60;99.90
35111;DHT22;21290;50.158;8.658;2023-06-14T04:25:19;14.70;99.90
35111;DHT22;21290;50.158;8.658;2023-06-14T04:27:49;14.70;99.90
35111;DHT22;21290;50.158;8.658;2023-06-14T04:30:16;14.70;99.90
35111;DHT22;21290;50.158;8.658;2023-06-14T04:32:43;14.80;99.90
35111;DHT22;21290;50.158;8.658;2023-06-14T04:35:11;14.80;99.90
35111;DHT22;21290;50.158;8.658;2023-06-14T04:37:38;14.80;99.90
35111;DHT22;21290;50.158;8.658;2023-06-14T04:40:08;14.90;99.90
35111;DHT22;21290;50.158;8.658;2023-06-14T04:42:38;14.90;99.90
35111;DHT22;21290;50.158;8.658;2023-06-14T04:45:07;15.00;99.90
35111;DHT22;21290;50.158;8.658;2023-06-14T04:47:35;15.00;99.90
35111;DHT22;21290;50.158;8.658;2023-06-14T04:50:02;15.10;99.90
35111;DHT22;21290;50.158;8.658;2023-06-14T04:52:30;15.10;99.90
35111;DHT22;21290;50.158;8.658;2023-06-14T04:54:57;15.20;99.90
35111;DHT22;21290;50.158;8.658;2023-06-14T04:57:24;15.30;99.90
35111;DHT22;21290;50.158;8.658;2023-06-14T04:59:52;15.30;99.90
35111;DHT22;21290;50.158;8.658;2023-06-14T05:02:23;15.40;99.90
35111;DHT22;21290;50.158;8.658;2023-06-14T05:04:51;15.40;99.90
35111;DHT22;21290;50.158;8.658;2023-06-14T05:07:17;15.50;99.90
35111;DHT22;21290;50.158;8.658;2023-06-14T05:09:45;15.50;99.90
35111;DHT22;21290;50.158;8.658;2023-06-14T05:12:11;15.60;99.90
35111;DHT22;21290;50.158;8.658;2023-06-14T05:14:38;15.80;99.60
35111;DHT22;21290;50.158;8.658;2023-06-14T05:17:06;15.80;99.60
35111;DHT22;21290;50.158;8.658;2023-06-14T05:19:32;16.00;99.10
35111;DHT22;21290;50.158;8.658;2023-06-14T05:21:59;16.10;98.60
35111;DHT22;21290;50.158;8.658;2023-06-14T05:24:26;16.20;98.60
35111;DHT22;21290;50.158;8.658;2023-06-14T05:26:53;16.30;98.50
35111;DHT22;21290;50.158;8.658;2023-06-14T05:29:20;16.30;98.00
35111;DHT22;21290;50.158;8.658;2023-06-14T05:31:46;16.50;98.00
35111;DHT22;21290;50.158;8.658;2023-06-14T05:34:13;16.60;97.30
35111;DHT22;21290;50.158;8.658;2023-06-14T05:36:40;16.60;96.80
35111;DHT22;21290;50.158;8.658;2023-06-14T05:39:06;16.70;97.10
35111;DHT22;21290;50.158;8.658;2023-06-14T05:41:34;16.80;97.10
35111;DHT22;21290;50.158;8.658;2023-06-14T05:44:01;16.90;96.60
35111;DHT22;21290;50.158;8.658;2023-06-14T05:46:28;17.00;96.60
35111;DHT22;21290;50.158;8.658;2023-06-14T05:48:55;17.10;96.30
35111;DHT22;21290;50.158;8.658;2023-06-14T05:51:22;17.20;96.00
35111;DHT22;21290;50.158;8.658;2023-06-14T05:53:52;17.30;96.00
35111;DHT22;21290;50.158;8.658;2023-06-14T05:56:19;17.40;95.70
35111;DHT22;21290;50.158;8.658;2023-06-14T05:58:46;17.50;95.20
35111;DHT22;21290;50.158;8.658;2023-06-14T06:01:14;17.60;95.00
35111;DHT22;21290;50.158;8.658;2023-06-14T06:03:41;17.70;94.80
35111;DHT22;21290;50.158;8.658;2023-06-14T06:06:12;17.90;94.70
35111;DHT22;21290;50.158;8.658;2023-06-14T06:08:39;18.00;94.60
35111;DHT22;21290;50.158;8.658;2023-06-14T06:11:07;18.10;94.50
35111;DHT22;21290;50.158;8.658;2023-06-14T06:13:34;18.20;94.10
35111;DHT22;21290;50.158;8.658;2023-06-14T06:16:02;18.30;94.30
35111;DHT22;21290;50.158;8.658;2023-06-14T06:18:29;18.50;94.10
35111;DHT22;21290;50.158;8.658;2023-06-14T06:20:56;18.50;93.60
35111;DHT22;21290;50.158;8.658;2023-06-14T06:23:23;18.60;93.80
35111;DHT22;21290;50.158;8.658;2023-06-14T06:25:49;18.70;93.30
35111;DHT22;21290;50.158;8.658;2023-06-14T06:28:17;18.80;93.20
35111;DHT22;21290;50.158;8.658;2023-06-14T06:30:43;18.90;93.30
35111;DHT22;21290;50.158;8.658;2023-06-14T06:33:10;19.10;93.10
35111;DHT22;21290;50.158;8.658;2023-06-14T06:35:37;19.20;93.00
35111;DHT22;21290;50.158;8.658;2023-06-14T06:38:04;19.30;92.30
35111;DHT22;21290;50.158;8.658;2023-06-14T06:40:31;19.50;92.30
35111;DHT22;21290;50.158;8.658;2023-06-14T06:42:57;19.70;91.70
35111;DHT22;21290;50.158;8.658;2023-06-14T06:45:24;19.80;91.70
35111;DHT22;21290;50.158;8.658;2023-06-14T06:47:51;19.90;90.80
35111;DHT22;21290;50.158;8.658;2023-06-14T06:50:18;20.10;90.40
35111;DHT22;21290;50.158;8.658;2023-06-14T06:52:46;20.20;90.10
35111;DHT22;21290;50.158;8.658;2023-06-14T06:55:13;20.30;90.10
35111;DHT22;21290;50.158;8.658;2023-06-14T06:57:41;20.50;90.00
35111;DHT22;21290;50.158;8.658;2023-06-14T07:00:08;20.60;89.60
35111;DHT22;21290;50.158;8.658;2023-06-14T07:02:36;20.80;88.90
35111;DHT22;21290;50.158;8.658;2023-06-14T07:05:04;21.00;89.10
35111;DHT22;21290;50.158;8.658;2023-06-14T07:07:31;21.30;88.50
35111;DHT22;21290;50.158;8.658;2023-06-14T07:09:58;21.40;86.90
35111;DHT22;21290;50.158;8.658;2023-06-14T07:12:25;21.40;87.00
35111;DHT22;21290;50.158;8.658;2023-06-14T07:14:52;21.60;85.80
35111;DHT22;21290;50.158;8.658;2023-06-14T07:17:19;21.80;85.90
35111;DHT22;21290;50.158;8.658;2023-06-14T07:19:46;22.00;84.40
35111;DHT22;21290;50.158;8.658;2023-06-14T07:22:13;22.30;84.00
35111;DHT22;21290;50.158;8.658;2023-06-14T07:24:40;22.60;83.00
35111;DHT22;21290;50.158;8.658;2023-06-14T07:27:09;22.80;80.50
35111;DHT22;21290;50.158;8.658;2023-06-14T07:29:40;23.30;80.60
35111;DHT22;21290;50.158;8.658;2023-06-14T07:32:07;23.90;78.60
35111;DHT22;21290;50.158;8.658;2023-06-14T07:34:34;24.90;74.90
35111;DHT22;21290;50.158;8.658;2023-06-14T07:37:01;25.60;71.80
35111;DHT22;21290;50.158;8.658;2023-06-14T07:39:27;25.70;70.30
35111;DHT22;21290;50.158;8.658;2023-06-14T07:41:54;25.50;70.30
35111;DHT22;21290;50.158;8.658;2023-06-14T07:44:21;25.10;70.30
35111;DHT22;21290;50.158;8.658;2023-06-14T07:46:48;24.80;69.80
35111;DHT22;21290;50.158;8.658;2023-06-14T07:49:15;24.50;69.40
35111;DHT22;21290;50.158;8.658;2023-06-14T07:51:43;24.60;71.10
35111;DHT22;21290;50.158;8.658;2023-06-14T07:54:11;24.60;71.00
35111;DHT22;21290;50.158;8.658;2023-06-14T07:56:38;24.60;71.30
35111;DHT22;21290;50.158;8.658;2023-06-14T07:59:04;24.80;70.70
35111;DHT22;21290;50.158;8.658;2023-06-14T08:01:32;25.20;70.90
35111;DHT22;21290;50.158;8.658;2023-06-14T08:03:59;25.40;70.10
35111;DHT22;21290;50.158;8.658;2023-06-14T08:06:27;26.10;69.00
35111;DHT22;21290;50.158;8.658;2023-06-14T08:08:54;26.50;67.50
35111;DHT22;21290;50.158;8.658;2023-06-14T08:11:21;27.00;66.00
35111;DHT22;21290;50.158;8.658;2023-06-14T08:13:47;27.40;64.30
35111;DHT22;21290;50.158;8.658;2023-06-14T08:16:14;28.10;62.90
35111;DHT22;21290;50.158;8.658;2023-06-14T08:18:41;29.30;60.90
35111;DHT22;21290;50.158;8.658;2023-06-14T08:21:08;30.60;58.60
35111;DHT22;21290;50.158;8.658;2023-06-14T08:23:35;31.90;56.50
35111;DHT22;21290;50.158;8.658;2023-06-14T08:26:02;32.90;54.40
35111;DHT22;21290;50.158;8.658;2023-06-14T08:28:30;33.70;52.30
35111;DHT22;21290;50.158;8.658;2023-06-14T08:30:57;34.50;51.40
35111;DHT22;21290;50.158;8.658;2023-06-14T08:33:24;34.80;50.20
35111;DHT22;21290;50.158;8.658;2023-06-14T08:35:51;35.60;49.10
35111;DHT22;21290;50.158;8.658;2023-06-14T08:38:18;36.00;47.80
35111;DHT22;21290;50.158;8.658;2023-06-14T08:40:47;36.10;47.90
35111;DHT22;21290;50.158;8.658;2023-06-14T08:43:15;36.40;46.60
35111;DHT22;21290;50.158;8.658;2023-06-14T08:45:42;36.80;46.20
35111;DHT22;21290;50.158;8.658;2023-06-14T08:48:09;37.40;46.00
35111;DHT22;21290;50.158;8.658;2023-06-14T08:50:36;37.70;45.60
35111;DHT22;21290;50.158;8.658;2023-06-14T08:53:08;37.70;44.50
35111;DHT22;21290;50.158;8.658;2023-06-14T08:55:37;37.60;44.80
35111;DHT22;21290;50.158;8.658;2023-06-14T08:58:09;38.10;44.80
35111;DHT22;21290;50.158;8.658;2023-06-14T09:00:40;37.60;44.30
35111;DHT22;21290;50.158;8.658;2023-06-14T09:03:10;37.90;43.90
35111;DHT22;21290;50.158;8.658;2023-06-14T09:05:40;37.40;43.70
35111;DHT22;21290;50.158;8.658;2023-06-14T09:08:06;36.60;43.60
35111;DHT22;21290;50.158;8.658;2023-06-14T09:10:33;36.10;45.00
35111;DHT22;21290;50.158;8.658;2023-06-14T09:13:02;36.60;45.00
35111;DHT22;21290;50.158;8.658;2023-06-14T09:15:30;37.30;44.60
35111;DHT22;21290;50.158;8.658;2023-06-14T09:17:57;37.50;43.80
35111;DHT22;21290;50.158;8.658;2023-06-14T09:20:24;37.90;43.10
35111;DHT22;21290;50.158;8.658;2023-06-14T09:22:53;38.50;43.20
35111;DHT22;21290;50.158;8.658;2023-06-14T09:25:20;38.40;43.10
35111;DHT22;21290;50.158;8.658;2023-06-14T09:28:06;38.70;42.70
35111;DHT22;21290;50.158;8.658;2023-06-14T09:30:33;37.00;42.60
35111;DHT22;21290;50.158;8.658;2023-06-14T09:33:00;34.90;44.30
35111;DHT22;21290;50.158;8.658;2023-06-14T09:35:27;34.40;46.20
35111;DHT22;21290;50.158;8.658;2023-06-14T09:37:57;33.80;45.80
35111;DHT22;21290;50.158;8.658;2023-06-14T09:40:24;33.90;45.10
35111;DHT22;21290;50.158;8.658;2023-06-14T09:42:52;34.50;46.20
35111;DHT22;21290;50.158;8.658;2023-06-14T09:45:19;35.10;45.10
35111;DHT22;21290;50.158;8.658;2023-06-14T09:47:51;34.90;44.80
35111;DHT22;21290;50.158;8.658;2023-06-14T09:50:21;34.40;45.20
35111;DHT22;21290;50.158;8.658;2023-06-14T09:52:51;34.40;45.50
35111;DHT22;21290;50.158;8.658;2023-06-14T09:55:19;35.60;44.50
35111;DHT22;21290;50.158;8.658;2023-06-14T09:57:48;36.70;43.30
35111;DHT22;21290;50.158;8.658;2023-06-14T10:00:16;37.70;42.70
35111;DHT22;21290;50.158;8.658;2023-06-14T10:02:51;38.60;42.50
35111;DHT22;21290;50.158;8.658;2023-06-14T10:05:21;39.20;42.10
35111;DHT22;21290;50.158;8.658;2023-06-14T10:07:53;39.80;42.00
35111;DHT22;21290;50.158;8.658;2023-06-14T10:10:22;39.80;41.80
35111;DHT22;21290;50.158;8.658;2023-06-14T10:12:49;40.00;41.50
35111;DHT22;21290;50.158;8.658;2023-06-14T10:15:32;39.30;41.00
35111;DHT22;21290;50.158;8.658;2023-06-14T10:18:19;37.60;42.00
35111;DHT22;21290;50.158;8.658;2023-06-14T10:21:05;37.20;43.30
35111;DHT22;21290;50.158;8.658;2023-06-14T10:23:37;37.70;43.80
35111;DHT22;21290;50.158;8.658;2023-06-14T10:26:07;37.80;42.20
35111;DHT22;21290;50.158;8.658;2023-06-14T10:28:37;37.60;42.70
35111;DHT22;21290;50.158;8.658;2023-06-14T10:31:06;38.30;42.80
35111;DHT22;21290;50.158;8.658;2023-06-14T10:33:56;39.00;41.90
35111;DHT22;21290;50.158;8.658;2023-06-14T10:39:06;39.90;40.80
35111;DHT22;21290;50.158;8.658;2023-06-14T10:41:40;39.90;41.00
35111;DHT22;21290;50.158;8.658;2023-06-14T10:44:32;38.60;41.60
35111;DHT22;21290;50.158;8.658;2023-06-14T10:46:59;37.90;41.70
35111;DHT22;21290;50.158;8.658;2023-06-14T10:49:57;38.00;42.00
35111;DHT22;21290;50.158;8.658;2023-06-14T10:52:26;38.70;42.40
35111;DHT22;21290;50.158;8.658;2023-06-14T10:57:58;39.40;41.50
35111;DHT22;21290;50.158;8.658;2023-06-14T11:00:28;39.40;40.40
35111;DHT22;21290;50.158;8.658;2023-06-14T11:05:53;38.90;40.10
35111;DHT22;21290;50.158;8.658;2023-06-14T11:11:31;37.50;41.90
35111;DHT22;21290;50.158;8.658;2023-06-14T11:13:59;38.20;42.00
35111;DHT22;21290;50.158;8.658;2023-06-14T11:16:27;38.60;42.00
35111;DHT22;21290;50.158;8.658;2023-06-14T11:18:55;38.70;41.70
35111;DHT22;21290;50.158;8.658;2023-06-14T11:21:21;38.80;41.80
35111;DHT22;21290;50.158;8.658;2023-06-14T11:23:52;39.30;41.00
35111;DHT22;21290;50.158;8.658;2023-06-14T11:26:29;39.40;40.70
35111;DHT22;21290;50.158;8.658;2023-06-14T11:28:57;39.50;40.10
35111;DHT22;21290;50.158;8.658;2023-06-14T11:31:26;38.90;41.30
35111;DHT22;21290;50.158;8.658;2023-06-14T11:33:54;37.50;42.00
35111;DHT22;21290;50.158;8.658;2023-06-14T11:36:21;36.10;42.60
35111;DHT22;21290;50.158;8.658;2023-06-14T11:38:47;35.00;43.40
35111;DHT22;21290;50.158;8.658;2023-06-14T11:41:14;34.20;43.70
35111;DHT22;21290;50.158;8.658;2023-06-14T11:43:41;33.00;44.80
35111;DHT22;21290;50.158;8.658;2023-06-14T11:46:14;32.50;44.30
35111;DHT22;21290;50.158;8.658;2023-06-14T11:48:48;32.20;44.40
35111;DHT22;21290;50.158;8.658;2023-06-14T11:51:15;31.70;45.20
35111;DHT22;21290;50.158;8.658;2023-06-14T11:53:43;30.90;46.60
35111;DHT22;21290;50.158;8.658;2023-06-14T11:56:10;30.40;47.60
35111;DHT22;21290;50.158;8.658;2023-06-14T11:58:37;30.10;47.90
35111;DHT22;21290;50.158;8.658;2023-06-14T12:01:04;29.90;48.10
35111;DHT22;21290;50.158;8.658;2023-06-14T12:03:30;29.80;48.60
35111;DHT22;21290;50.158;8.658;2023-06-14T12:06:07;29.70;49.00
35111;DHT22;21290;50.158;8.658;2023-06-14T12:08:36;29.70;48.90
35111;DHT22;21290;50.158;8.658;2023-06-14T12:11:11;29.80;48.50
35111;DHT22;21290;50.158;8.658;2023-06-14T12:13:41;29.80;48.50
35111;DHT22;21290;50.158;8.658;2023-06-14T12:16:11;29.30;48.30
35111;DHT22;21290;50.158;8.658;2023-06-14T12:18:40;29.10;49.10
35111;DHT22;21290;50.158;8.658;2023-06-14T12:21:08;28.50;48.80
35111;DHT22;21290;50.158;8.658;2023-06-14T12:23:46;28.30;50.20
35111;DHT22;21290;50.158;8.658;2023-06-14T12:26:18;28.30;49.30
35111;DHT22;21290;50.158;8.658;2023-06-14T12:28:46;28.40;49.70
35111;DHT22;21290;50.158;8.658;2023-06-14T12:31:15;28.40;50.00
35111;DHT22;21290;50.158;8.658;2023-06-14T12:33:42;28.20;50.10
35111;DHT22;21290;50.158;8.658;2023-06-14T12:36:10;28.40;49.90
35111;DHT22;21290;50.158;8.658;2023-06-14T12:38:37;28.20;50.00
35111;DHT22;21290;50.158;8.658;2023-06-14T12:41:04;27.90;49.40
35111;DHT22;21290;50.158;8.658;2023-06-14T12:43:31;27.60;50.80
35111;DHT22;21290;50.158;8.658;2023-06-14T12:45:58;27.40;50.30
35111;DHT22;21290;50.158;8.658;2023-06-14T12:48:25;27.20;50.10
35111;DHT22;21290;50.158;8.658;2023-06-14T12:50:53;27.20;51.40
35111;DHT22;21290;50.158;8.658;2023-06-14T12:53:20;26.90;50.60
35111;DHT22;21290;50.158;8.658;2023-06-14T12:55:47;27.10;51.20
35111;DHT22;21290;50.158;8.658;2023-06-14T12:58:14;27.10;51.00
35111;DHT22;21290;50.158;8.658;2023-06-14T13:00:41;27.30;50.10
35111;DHT22;21290;50.158;8.658;2023-06-14T13:03:07;27.40;50.80
35111;DHT22;21290;50.158;8.658;2023-06-14T13:05:34;27.20;50.30
35111;DHT22;21290;50.158;8.658;2023-06-14T13:08:01;27.30;51.50
35111;DHT22;21290;50.158;8.658;2023-06-14T13:10:28;27.40;50.80
35111;DHT22;21290;50.158;8.658;2023-06-14T13:12:54;27.70;50.80
35111;DHT22;21290;50.158;8.658;2023-06-14T13:15:21;27.80;50.70
35111;DHT22;21290;50.158;8.658;2023-06-14T13:17:48;27.90;50.90
35111;DHT22;21290;50.158;8.658;2023-06-14T13:20:15;27.90;50.10
35111;DHT22;21290;50.158;8.658;2023-06-14T13:22:46;27.90;50.00
35111;DHT22;21290;50.158;8.658;2023-06-14T13:25:13;27.70;49.60
35111;DHT22;21290;50.158;8.658;2023-06-14T13:27:40;27.30;49.10
35111;DHT22;21290;50.158;8.658;2023-06-14T13:30:07;27.10;50.00
35111;DHT22;21290;50.158;8.658;2023-06-14T13:32:34;27.00;50.20
35111;DHT22;21290;50.158;8.658;2023-06-14T13:35:00;27.00;50.80
35111;DHT22;21290;50.158;8.658;2023-06-14T13:37:27;27.20;49.50
35111;DHT22;21290;50.158;8.658;2023-06-14T13:39:54;27.10;49.50
35111;DHT22;21290;50.158;8.658;2023-06-14T13:42:21;27.10;50.80
35111;DHT22;21290;50.158;8.658;2023-06-14T13:44:48;27.30;51.20
35111;DHT22;21290;50.158;8.658;2023-06-14T13:47:32;27.70;52.50
35111;DHT22;21290;50.158;8.658;2023-06-14T13:49:59;27.80;50.80
35111;DHT22;21290;50.158;8.658;2023-06-14T13:52:44;27.60;49.80
35111;DHT22;21290;50.158;8.658;2023-06-14T13:55:28;27.50;50.10
35111;DHT22;21290;50.158;8.658;2023-06-14T13:57:55;27.60;51.20
35111;DHT22;21290;50.158;8.658;2023-06-14T14:00:40;27.70;52.00
35111;DHT22;21290;50.158;8.658;2023-06-14T14:03:25;27.80;52.00
35111;DHT22;21290;50.158;8.658;2023-06-14T14:05:51;27.70;52.00
35111;DHT22;21290;50.158;8.658;2023-06-14T14:08:35;27.80;52.00
35111;DHT22;21290;50.158;8.658;2023-06-14T14:11:20;27.70;52.40
35111;DHT22;21290;50.158;8.658;2023-06-14T14:14:05;27.80;51.90
35111;DHT22;21290;50.158;8.658;2023-06-14T14:16:32;28.00;51.70
35111;DHT22;21290;50.158;8.658;2023-06-14T14:19:17;28.10;52.30
35111;DHT22;21290;50.158;8.658;2023-06-14T14:22:03;28.20;50.90
35111;DHT22;21290;50.158;8.658;2023-06-14T14:24:47;28.10;51.20
35111;DHT22;21290;50.158;8.658;2023-06-14T14:27:14;28.00;50.50
35111;DHT22;21290;50.158;8.658;2023-06-14T14:29:41;28.20;51.20
35111;DHT22;21290;50.158;8.658;2023-06-14T14:32:08;28.00;50.50
35111;DHT22;21290;50.158;8.658;2023-06-14T14:34:37;27.80;51.40
35111;DHT22;21290;50.158;8.658;2023-06-14T14:37:03;28.00;51.80
35111;DHT22;21290;50.158;8.658;2023-06-14T14:39:30;28.00;51.90
35111;DHT22;21290;50.158;8.658;2023-06-14T14:41:57;28.20;52.00
35111;DHT22;21290;50.158;8.658;2023-06-14T14:44:24;28.20;51.80
35111;DHT22;21290;50.158;8.658;2023-06-14T14:46:51;28.30;52.20
35111;DHT22;21290;50.158;8.658;2023-06-14T14:49:17;28.10;51.70
35111;DHT22;21290;50.158;8.658;2023-06-14T14:51:44;27.90;51.70
35111;DHT22;21290;50.158;8.658;2023-06-14T14:54:11;27.70;52.50
35111;DHT22;21290;50.158;8.658;2023-06-14T14:56:38;27.70;51.40
35111;DHT22;21290;50.158;8.658;2023-06-14T14:59:05;27.80;50.50
35111;DHT22;21290;50.158;8.658;2023-06-14T15:01:31;27.70;51.80
35111;DHT22;21290;50.158;8.658;2023-06-14T15:03:58;27.60;50.90
35111;DHT22;21290;50.158;8.658;2023-06-14T15:06:26;27.30;51.60
35111;DHT22;21290;50.158;8.658;2023-06-14T15:08:52;26.90;51.20
35111;DHT22;21290;50.158;8.658;2023-06-14T15:11:19;26.80;52.80
35111;DHT22;21290;50.158;8.658;2023-06-14T15:13:47;26.80;52.60
35111;DHT22;21290;50.158;8.658;2023-06-14T15:16:14;26.90;52.50
35111;DHT22;21290;50.158;8.658;2023-06-14T15:18:41;27.10;52.60
35111;DHT22;21290;50.158;8.658;2023-06-14T15:21:08;27.10;52.00
35111;DHT22;21290;50.158;8.658;2023-06-14T15:23:35;27.00;51.70
35111;DHT22;21290;50.158;8.658;2023-06-14T15:26:01;26.80;51.30
35111;DHT22;21290;50.158;8.658;2023-06-14T15:28:28;26.70;51.40
35111;DHT22;21290;50.158;8.658;2023-06-14T15:30:55;26.70;52.30
35111;DHT22;21290;50.158;8.658;2023-06-14T15:33:23;26.90;53.10
35111;DHT22;21290;50.158;8.658;2023-06-14T15:35:50;26.90;53.30
35111;DHT22;21290;50.158;8.658;2023-06-14T15:38:17;26.90;53.90
35111;DHT22;21290;50.158;8.658;2023-06-14T15:40:44;26.80;54.10
35111;DHT22;21290;50.158;8.658;2023-06-14T15:43:12;26.80;54.50
35111;DHT22;21290;50.158;8.658;2023-06-14T15:45:39;26.70;54.50
35111;DHT22;21290;50.158;8.658;2023-06-14T15:48:06;26.60;53.70
35111;DHT22;21290;50.158;8.658;2023-06-14T15:50:33;26.30;52.40